Time;durP1;ratioP1;P1;durP2;ratioP2;P2;SDS_P1;SDS_P2;PMS_P1;PMS_P2;Temp;Humidity;BMP_temperature;BMP_pressure;BME280_temperature;BME280_humidity;BME280_pressure;Samples;Min_cycle;Max_cycle;Signal;HPM_P1;HPM_P2
2021/12/11 00:00:08;;;;;;;;;;;;;;;;;;1005397;29;1238;-14
2021/12/11 00:00:46;;;;;;;;;;;;;;;;;;1004988;29;1398;-14
2021/12/11 00:01:21;;;;;;;;;;;;;;;;;;1012472;29;1052;-15
2021/12/11 00:01:54;;;;;;;;;;;;;;;;;;1014442;29;982;-14
2021/12/11 00:02:30;;;;;;;;;;;;;;;;;;1010577;29;1218;-14
2021/12/11 00:03:07;;;;;;;;;;;;;;;;;;1013298;29;1040;-14
2021/12/11 00:03:40;;;;;;;;;;;;;;;;;;1011311;29;1018;-14
2021/12/11 00:04:13;;;;;;;;;;;;;;;;;;998761;29;1118;-14
2021/12/11 00:04:47;;;;;;;;;;;;;;;;;;991496;29;1019;-14
2021/12/11 00:05:17;;;;;;;;;;;;;;;;;;991011;29;1246;-14
2021/12/11 00:05:50;;;;;;;;;;;;;;;;;;993940;29;996;-14
2021/12/11 00:06:21;;;;;;;;;;;;;;;;;;1004100;29;935;-14
2021/12/11 00:06:53;;;;;;;;;;;;;;;;;;1006349;29;1098;-19
2021/12/11 00:07:27;;;;;;;;;;;;;;;;;;1006925;29;952;-13
2021/12/11 00:07:58;;;;;;;;;;;;;;;;;;1006089;29;1247;-14
2021/12/11 00:08:29;;;;;;;;;;;;;;;;;;1007521;29;1911;-14
2021/12/11 00:09:17;;;;;;;;;;;;;;;;;;1016623;29;1113;-14
2021/12/11 00:09:53;;;;;;;;;;;;;;;;;;1014279;29;1205;-14
2021/12/11 00:10:33;;;;;;;;;;;;;;;;;;1018553;29;1070;-14
2021/12/11 00:11:03;;;;;;;;;;;;;;;;;;1018812;29;1442;-14
2021/12/11 00:12:57;;;;;;;;;;;;;;;;;;1007381;29;1447;-14
2021/12/11 00:13:30;;;;;;;;;;;;;;;;;;1011442;29;1344;-14
2021/12/11 00:14:02;;;;;;;;;;;;;;;;;;1012357;29;1308;-14
2021/12/11 00:14:34;;;;;;;;;;;;;;;;;;993552;29;1060;-14
2021/12/11 00:15:10;;;;;;;;;;;;;;;;;;1003565;29;1105;-14
2021/12/11 00:15:43;;;;;;;;;;;;;;;;;;1002666;29;1178;-14
2021/12/11 00:16:17;;;;;;;;;;;;;;;;;;997609;29;940;-17
2021/12/11 00:16:47;;;;;;;;;;;;;;;;;;1002849;29;1019;-14
2021/12/11 00:17:19;;;;;;;;;;;;;;;;;;999681;29;928;-14
2021/12/11 00:17:56;;;;;;;;;;;;;;;;;;1003339;29;1286;-14
2021/12/11 00:18:27;;;;;;;;;;;;;;;;;;1006424;29;1152;-14
2021/12/11 00:19:02;;;;;;;;;;;;;;;;;;1004572;29;1077;-14
2021/12/11 00:19:36;;;;;;;;;;;;;;;;;;1010736;29;1110;-14
2021/12/11 00:20:13;;;;;;;;;;;;;;;;;;1009799;29;1449;-14
2021/12/11 00:20:47;;;;;;;;;;;;;;;;;;1009107;29;1232;-14
2021/12/11 00:21:18;;;;;;;;;;;;;;;;;;1009593;29;1377;-13
2021/12/11 00:21:49;;;;;;;;;;;;;;;;;;1010624;29;1228;-14
2021/12/11 00:22:22;;;;;;;;;;;;;;;;;;1010091;29;1518;-14
2021/12/11 00:22:53;;;;;;;;;;;;;;;;;;1009495;29;1167;-25
2021/12/11 00:23:34;;;;;;;;;;;;;;;;;;1010500;29;1105;-15
2021/12/11 00:24:08;;;;;;;;;;;;;;;;;;1004610;29;1141;-14
2021/12/11 00:24:39;;;;;;;;;;;;;;;;;;1006268;29;1146;-14
2021/12/11 00:25:11;;;;;;;;;;;;;;;;;;1003893;29;1105;-14
2021/12/11 00:25:42;;;;;;;;;;;;;;;;;;1006600;29;1232;-14
2021/12/11 00:26:14;;;;;;;;;;;;;;;;;;1010271;29;1179;-14
2021/12/11 00:26:50;;;;;;;;;;;;;;;;;;1013283;29;1428;-14
2021/12/11 00:27:23;;;;;;;;;;;;;;;;;;1010385;29;1252;-14
2021/12/11 00:28:00;;;;;;;;;;;;;;;;;;1006594;29;1408;-15
2021/12/11 00:28:30;;;;;;;;;;;;;;;;;;1003154;29;1982;-14
2021/12/11 00:29:03;;;;;;;;;;;;;;;;;;1008005;29;1208;-14
2021/12/11 00:29:35;;;;;;;;;;;;;;;;;;1015042;29;1141;-14
2021/12/11 00:30:10;;;;;;;;;;;;;;;;;;1014107;29;1177;-14
2021/12/11 00:30:42;;;;;;;;;;;;;;;;;;1013261;29;1156;-14
2021/12/11 00:31:14;;;;;;;;;;;;;;;;;;1010077;29;1512;-14
2021/12/11 00:31:47;;;;;;;;;;;;;;;;;;1004677;29;1186;-14
2021/12/11 00:32:28;;;;;;;;;;;;;;;;;;1001662;29;1475;-15
2021/12/11 00:33:00;;;;;;;;;;;;;;;;;;1005753;29;1086;-14
2021/12/11 00:33:33;;;;;;;;;;;;;;;;;;1006266;29;1136;-14
2021/12/11 00:34:09;;;;;;;;;;;;;;;;;;995633;29;1463;-14
2021/12/11 00:34:43;;;;;;;;;;;;;;;;;;1010268;29;1299;-14
2021/12/11 00:35:17;;;;;;;;;;;;;;;;;;1008960;29;1144;-14
2021/12/11 00:35:48;;;;;;;;;;;;;;;;;;1005188;29;1208;-14
2021/12/11 00:36:20;;;;;;;;;;;;;;;;;;998562;29;1303;-14
2021/12/11 00:36:52;;;;;;;;;;;;;;;;;;1002439;29;1154;-14
2021/12/11 00:37:24;;;;;;;;;;;;;;;;;;1000101;29;1012;-14
2021/12/11 00:38:06;;;;;;;;;;;;;;;;;;1002262;29;1376;-14
2021/12/11 00:38:37;;;;;;;;;;;;;;;;;;1002582;29;938;-14
2021/12/11 00:39:11;;;;;;;;;;;;;;;;;;1002411;29;1873;-15
2021/12/11 00:40:04;;;;;;;;;;;;;;;;;;1006928;29;1101;-14
2021/12/11 00:40:35;;;;;;;;;;;;;;;;;;1010660;29;2037;-14
2021/12/11 00:41:08;;;;;;;;;;;;;;;;;;1011208;29;1058;-14
2021/12/11 00:41:53;;;;;;;;;;;;;;;;;;1013887;29;1035;-14
2021/12/11 00:42:31;;;;;;;;;;;;;;;;;;1006378;29;1322;-14
2021/12/11 00:43:04;;;;;;;;;;;;;;;;;;1002742;29;923;-14
2021/12/11 00:43:35;;;;;;;;;;;;;;;;;;999438;29;1289;-14
2021/12/11 00:44:06;;;;;;;;;;;;;;;;;;1001348;29;1353;-14
2021/12/11 00:44:38;;;;;;;;;;;;;;;;;;1005632;29;973;-14
2021/12/11 00:45:14;;;;;;;;;;;;;;;;;;1005919;29;1370;-14
2021/12/11 00:45:45;;;;;;;;;;;;;;;;;;1006480;29;1164;-14
2021/12/11 00:46:18;;;;;;;;;;;;;;;;;;1006532;29;867;-14
2021/12/11 00:46:48;;;;;;;;;;;;;;;;;;1007428;29;901;-14
2021/12/11 00:47:25;;;;;;;;;;;;;;;;;;1010314;29;1142;-14
2021/12/11 00:47:57;;;;;;;;;;;;;;;;;;1010068;29;1676;-14
2021/12/11 00:48:28;;;;;;;;;;;;;;;;;;1006265;29;1990;-15
2021/12/11 00:49:12;;;;;;;;;;;;;;;;;;1006608;29;1050;-14
2021/12/11 00:49:52;;;;;;;;;;;;;;;;;;1006259;29;979;-15
2021/12/11 00:50:27;;;;;;;;;;;;;;;;;;1002659;29;1083;-14
2021/12/11 00:51:17;;;;;;;;;;;;;;;;;;1002525;29;1409;-14
2021/12/11 00:51:56;;;;;;;;;;;;;;;;;;997914;29;960;-14
2021/12/11 00:52:31;;;;;;;;;;;;;;;;;;1010870;29;1042;-14
2021/12/11 00:53:13;;;;;;;;;;;;;;;;;;1010912;29;1222;-15
2021/12/11 00:53:45;;;;;;;;;;;;;;;;;;1011203;29;978;-14
2021/12/11 00:54:16;;;;;;;;;;;;;;;;;;1002586;29;1008;-14
2021/12/11 00:54:47;;;;;;;;;;;;;;;;;;998584;29;885;-14
2021/12/11 00:55:38;;;;;;;;;;;;;;;;;;987475;30;1265;-14
2021/12/11 00:56:12;;;;;;;;;;;;;;;;;;988683;29;1219;-14
2021/12/11 00:56:45;;;;;;;;;;;;;;;;;;991347;29;1188;-14
2021/12/11 00:57:20;;;;;;;;;;;;;;;;;;1007885;29;952;-14
2021/12/11 00:58:00;;;;;;;;;;;;;;;;;;1009842;29;1193;-14
2021/12/11 00:58:32;;;;;;;;;;;;;;;;;;1010325;29;1399;-14
2021/12/11 00:59:05;;;;;;;;;;;;;;;;;;1010095;29;1150;-15
2021/12/11 00:59:36;;;;;;;;;;;;;;;;;;1010438;29;1006;-14
2021/12/11 01:00:09;;;;;;;;;;;;;;;;;;1010545;29;951;-14
2021/12/11 01:00:40;;;;;;;;;;;;;;;;;;1006757;29;1435;-14
2021/12/11 01:01:12;;;;;;;;;;;;;;;;;;1008478;29;958;-14
2021/12/11 01:01:50;;;;;;;;;;;;;;;;;;1007759;29;1314;-14
2021/12/11 01:02:21;;;;;;;;;;;;;;;;;;1003540;29;1110;-14
2021/12/11 01:02:53;;;;;;;;;;;;;;;;;;1006145;29;1117;-14
2021/12/11 01:03:35;;;;;;;;;;;;;;;;;;1001800;29;1350;-15
2021/12/11 01:04:08;;;;;;;;;;;;;;;;;;1006180;29;1211;-14
2021/12/11 01:04:43;;;;;;;;;;;;;;;;;;1008110;29;1136;-14
2021/12/11 01:05:14;;;;;;;;;;;;;;;;;;1006216;29;983;-14
2021/12/11 01:05:46;;;;;;;;;;;;;;;;;;1002467;29;1695;-14
2021/12/11 01:06:19;;;;;;;;;;;;;;;;;;1001547;29;1131;-14
2021/12/11 01:07:08;;;;;;;;;;;;;;;;;;999826;29;946;-14
2021/12/11 01:07:38;;;;;;;;;;;;;;;;;;1012484;29;923;-14
2021/12/11 01:08:23;;;;;;;;;;;;;;;;;;1014458;29;1382;-14
2021/12/11 01:09:06;;;;;;;;;;;;;;;;;;1014453;29;1275;-14
2021/12/11 01:09:39;;;;;;;;;;;;;;;;;;1010786;29;1013;-15
2021/12/11 01:10:29;;;;;;;;;;;;;;;;;;1010178;29;1314;-14
2021/12/11 01:11:07;;;;;;;;;;;;;;;;;;1008799;29;1195;-14
2021/12/11 01:11:41;;;;;;;;;;;;;;;;;;1010692;29;1483;-14
2021/12/11 01:12:20;;;;;;;;;;;;;;;;;;1011033;29;1269;-14
2021/12/11 01:13:03;;;;;;;;;;;;;;;;;;1002278;29;1285;-14
2021/12/11 01:13:35;;;;;;;;;;;;;;;;;;1002341;29;1048;-14
2021/12/11 01:14:24;;;;;;;;;;;;;;;;;;1002816;29;1013;-14
2021/12/11 01:14:57;;;;;;;;;;;;;;;;;;1011012;29;889;-14
2021/12/11 01:15:31;;;;;;;;;;;;;;;;;;1006785;29;932;-14
2021/12/11 01:16:06;;;;;;;;;;;;;;;;;;1002636;29;1335;-15
2021/12/11 01:16:37;;;;;;;;;;;;;;;;;;1002675;29;936;-14
2021/12/11 01:17:21;;;;;;;;;;;;;;;;;;999940;29;880;-15
2021/12/11 01:18:10;;;;;;;;;;;;;;;;;;1000908;29;972;-14
2021/12/11 01:18:45;;;;;;;;;;;;;;;;;;1001985;29;1433;-14
2021/12/11 01:19:19;;;;;;;;;;;;;;;;;;998619;29;1012;-14
2021/12/11 01:19:54;;;;;;;;;;;;;;;;;;1002023;29;942;-14
2021/12/11 01:20:34;;;;;;;;;;;;;;;;;;994602;29;1318;-14
2021/12/11 01:21:25;;;;;;;;;;;;;;;;;;999478;29;972;-14
2021/12/11 01:21:57;;;;;;;;;;;;;;;;;;1002769;29;1123;-14
2021/12/11 01:22:34;;;;;;;;;;;;;;;;;;1011112;29;1034;-14
2021/12/11 01:23:15;;;;;;;;;;;;;;;;;;1011057;29;864;-15
2021/12/11 01:24:45;;;;;;;;;;;;;;;;;;1009865;29;1592;-15
2021/12/11 01:25:18;;;;;;;;;;;;;;;;;;1010960;29;1077;-14
2021/12/11 01:25:49;;;;;;;;;;;;;;;;;;1002358;29;1261;-14
2021/12/11 01:26:21;;;;;;;;;;;;;;;;;;1002410;29;1025;-14
2021/12/11 01:26:51;;;;;;;;;;;;;;;;;;998709;29;1194;-14
2021/12/11 01:27:25;;;;;;;;;;;;;;;;;;998603;29;1282;-14
2021/12/11 01:27:57;;;;;;;;;;;;;;;;;;1006352;29;945;-14
2021/12/11 01:28:27;;;;;;;;;;;;;;;;;;1005635;29;1998;-14
2021/12/11 01:28:58;;;;;;;;;;;;;;;;;;1006376;29;995;-14
2021/12/11 01:29:30;;;;;;;;;;;;;;;;;;1005765;29;1126;-14
2021/12/11 01:30:01;;;;;;;;;;;;;;;;;;1006400;29;959;-14
2021/12/11 01:30:33;;;;;;;;;;;;;;;;;;1006415;29;1030;-14
2021/12/11 01:31:06;;;;;;;;;;;;;;;;;;1006717;29;1297;-14
2021/12/11 01:31:37;;;;;;;;;;;;;;;;;;1010055;29;1410;-14
2021/12/11 01:32:08;;;;;;;;;;;;;;;;;;1002433;29;1032;-14
2021/12/11 01:32:39;;;;;;;;;;;;;;;;;;1005026;29;1259;-14
2021/12/11 01:33:10;;;;;;;;;;;;;;;;;;1006473;29;1022;-14
2021/12/11 01:33:41;;;;;;;;;;;;;;;;;;1006751;29;1034;-14
2021/12/11 01:34:12;;;;;;;;;;;;;;;;;;1005922;29;1399;-14
2021/12/11 01:34:44;;;;;;;;;;;;;;;;;;1002309;29;966;-14
2021/12/11 01:35:16;;;;;;;;;;;;;;;;;;998564;29;1167;-14
2021/12/11 01:35:47;;;;;;;;;;;;;;;;;;995780;29;1139;-14
2021/12/11 01:36:18;;;;;;;;;;;;;;;;;;1002580;29;1042;-14
2021/12/11 01:36:48;;;;;;;;;;;;;;;;;;1002415;29;1044;-14
2021/12/11 01:37:19;;;;;;;;;;;;;;;;;;1006594;29;1015;-14
2021/12/11 01:37:58;;;;;;;;;;;;;;;;;;1013981;29;950;-14
2021/12/11 01:38:29;;;;;;;;;;;;;;;;;;1009496;29;1006;-14
2021/12/11 01:39:02;;;;;;;;;;;;;;;;;;1002383;29;964;-14
2021/12/11 01:39:36;;;;;;;;;;;;;;;;;;994693;29;1035;-14
2021/12/11 01:40:09;;;;;;;;;;;;;;;;;;995216;29;1034;-14
2021/12/11 01:40:40;;;;;;;;;;;;;;;;;;996608;29;1571;-14
2021/12/11 01:41:18;;;;;;;;;;;;;;;;;;1004810;29;1122;-14
2021/12/11 01:41:50;;;;;;;;;;;;;;;;;;1014971;29;957;-14
2021/12/11 01:42:23;;;;;;;;;;;;;;;;;;1014371;29;1285;-14
2021/12/11 01:42:54;;;;;;;;;;;;;;;;;;1002333;29;967;-14
2021/12/11 01:43:26;;;;;;;;;;;;;;;;;;1002699;29;1007;-14
2021/12/11 01:43:58;;;;;;;;;;;;;;;;;;998640;29;1015;-14
2021/12/11 01:44:30;;;;;;;;;;;;;;;;;;1000188;29;981;-14
2021/12/11 01:45:03;;;;;;;;;;;;;;;;;;1009540;29;1584;-14
2021/12/11 01:45:34;;;;;;;;;;;;;;;;;;1011181;29;951;-14
2021/12/11 01:46:05;;;;;;;;;;;;;;;;;;1010363;29;1177;-14
2021/12/11 01:46:36;;;;;;;;;;;;;;;;;;1010475;29;1061;-15
2021/12/11 01:47:10;;;;;;;;;;;;;;;;;;1010690;29;916;-14
2021/12/11 01:47:42;;;;;;;;;;;;;;;;;;1010287;29;1463;-14
2021/12/11 01:48:17;;;;;;;;;;;;;;;;;;1014314;29;1023;-14
2021/12/11 01:48:49;;;;;;;;;;;;;;;;;;1002383;29;1915;-14
2021/12/11 01:49:21;;;;;;;;;;;;;;;;;;1002642;29;1013;-14
2021/12/11 01:49:53;;;;;;;;;;;;;;;;;;1002645;29;1025;-14
2021/12/11 01:50:44;;;;;;;;;;;;;;;;;;1004194;29;1073;-14
2021/12/11 01:51:19;;;;;;;;;;;;;;;;;;1013667;29;1115;-14
2021/12/11 01:51:55;;;;;;;;;;;;;;;;;;1013901;29;1364;-14
2021/12/11 01:52:50;;;;;;;;;;;;;;;;;;1014760;29;916;-14
2021/12/11 01:53:33;;;;;;;;;;;;;;;;;;1002464;29;988;-14
2021/12/11 01:54:12;;;;;;;;;;;;;;;;;;1002482;29;953;-14
2021/12/11 01:54:44;;;;;;;;;;;;;;;;;;1002433;29;1262;-14
2021/12/11 01:55:21;;;;;;;;;;;;;;;;;;1011308;29;1062;-14
2021/12/11 01:55:54;;;;;;;;;;;;;;;;;;1006023;29;1236;-14
2021/12/11 01:56:26;;;;;;;;;;;;;;;;;;1010004;29;1510;-14
2021/12/11 01:57:02;;;;;;;;;;;;;;;;;;1010084;29;1154;-14
2021/12/11 01:57:32;;;;;;;;;;;;;;;;;;1009752;29;1431;-14
2021/12/11 01:58:04;;;;;;;;;;;;;;;;;;1013642;29;1060;-14
2021/12/11 01:59:02;;;;;;;;;;;;;;;;;;1014080;29;1070;-14
2021/12/11 01:59:35;;;;;;;;;;;;;;;;;;1011819;29;1044;-14
2021/12/11 02:00:12;;;;;;;;;;;;;;;;;;1006192;29;983;-14
2021/12/11 02:00:45;;;;;;;;;;;;;;;;;;1005318;29;1424;-14
2021/12/11 02:01:30;;;;;;;;;;;;;;;;;;1005798;29;1436;-14
2021/12/11 02:02:12;;;;;;;;;;;;;;;;;;1012956;29;1200;-14
2021/12/11 02:02:47;;;;;;;;;;;;;;;;;;1010037;29;1016;-14
2021/12/11 02:03:20;;;;;;;;;;;;;;;;;;1006351;29;1048;-14
2021/12/11 02:03:52;;;;;;;;;;;;;;;;;;1006256;29;1144;-14
2021/12/11 02:04:25;;;;;;;;;;;;;;;;;;1006247;29;1092;-22
2021/12/11 02:04:55;;;;;;;;;;;;;;;;;;999415;29;1016;-14
2021/12/11 02:05:28;;;;;;;;;;;;;;;;;;998008;29;965;-14
2021/12/11 02:05:59;;;;;;;;;;;;;;;;;;998011;29;1031;-14
2021/12/11 02:06:34;;;;;;;;;;;;;;;;;;994818;29;1302;-14
2021/12/11 02:07:06;;;;;;;;;;;;;;;;;;1000346;29;965;-14
2021/12/11 02:07:40;;;;;;;;;;;;;;;;;;1008067;29;1198;-14
2021/12/11 02:08:16;;;;;;;;;;;;;;;;;;1009870;29;1545;-15
2021/12/11 02:08:47;;;;;;;;;;;;;;;;;;1010236;29;1907;-14
2021/12/11 02:09:19;;;;;;;;;;;;;;;;;;1002417;29;1547;-14
2021/12/11 02:09:57;;;;;;;;;;;;;;;;;;1011038;29;1116;-14
2021/12/11 02:10:34;;;;;;;;;;;;;;;;;;1014134;29;1013;-14
2021/12/11 02:11:10;;;;;;;;;;;;;;;;;;1016155;29;832;-14
2021/12/11 02:11:41;;;;;;;;;;;;;;;;;;1014473;29;1381;-14
2021/12/11 02:12:21;;;;;;;;;;;;;;;;;;1013161;29;1411;-14
2021/12/11 02:12:52;;;;;;;;;;;;;;;;;;1010149;29;1096;-14
2021/12/11 02:13:36;;;;;;;;;;;;;;;;;;1007039;29;1571;-14
2021/12/11 02:14:08;;;;;;;;;;;;;;;;;;1010166;29;1120;-15
2021/12/11 02:14:43;;;;;;;;;;;;;;;;;;1009652;29;1337;-14
2021/12/11 02:15:16;;;;;;;;;;;;;;;;;;1010124;29;1002;-14
2021/12/11 02:15:51;;;;;;;;;;;;;;;;;;1010067;29;1275;-15
2021/12/11 02:16:26;;;;;;;;;;;;;;;;;;1003420;29;1048;-14
2021/12/11 02:16:58;;;;;;;;;;;;;;;;;;1002333;29;1615;-14
2021/12/11 02:17:32;;;;;;;;;;;;;;;;;;999558;29;1349;-14
2021/12/11 02:18:11;;;;;;;;;;;;;;;;;;998085;29;1174;-14
2021/12/11 02:18:45;;;;;;;;;;;;;;;;;;1006150;29;985;-14
2021/12/11 02:19:17;;;;;;;;;;;;;;;;;;1006264;29;990;-14
2021/12/11 02:19:49;;;;;;;;;;;;;;;;;;1006339;29;947;-14
2021/12/11 02:20:37;;;;;;;;;;;;;;;;;;1008779;29;914;-14
2021/12/11 02:21:12;;;;;;;;;;;;;;;;;;1010082;29;982;-14
2021/12/11 02:21:54;;;;;;;;;;;;;;;;;;1009304;29;962;-14
2021/12/11 02:22:31;;;;;;;;;;;;;;;;;;1009966;29;1141;-14
2021/12/11 02:23:03;;;;;;;;;;;;;;;;;;1006171;29;962;-14
2021/12/11 02:23:34;;;;;;;;;;;;;;;;;;1004452;29;1445;-14
2021/12/11 02:24:07;;;;;;;;;;;;;;;;;;1006243;29;1451;-14
2021/12/11 02:24:43;;;;;;;;;;;;;;;;;;997314;29;1031;-14
2021/12/11 02:25:42;;;;;;;;;;;;;;;;;;994328;29;972;-14
2021/12/11 02:26:15;;;;;;;;;;;;;;;;;;998558;29;1014;-14
2021/12/11 02:26:50;;;;;;;;;;;;;;;;;;1010205;29;1055;-14
2021/12/11 02:27:27;;;;;;;;;;;;;;;;;;1002374;29;1002;-14
2021/12/11 02:28:00;;;;;;;;;;;;;;;;;;1005874;29;1046;-14
2021/12/11 02:28:36;;;;;;;;;;;;;;;;;;1009946;29;1998;-14
2021/12/11 02:29:13;;;;;;;;;;;;;;;;;;1012443;29;1092;-14
2021/12/11 02:29:47;;;;;;;;;;;;;;;;;;1009592;29;1951;-14
2021/12/11 02:30:24;;;;;;;;;;;;;;;;;;1010101;29;1141;-14
2021/12/11 02:31:04;;;;;;;;;;;;;;;;;;1006062;29;1349;-14
2021/12/11 02:31:47;;;;;;;;;;;;;;;;;;1011316;29;1077;-14
2021/12/11 02:32:26;;;;;;;;;;;;;;;;;;1005931;29;1344;-14
2021/12/11 02:33:17;;;;;;;;;;;;;;;;;;1009659;29;1195;-14
2021/12/11 02:34:08;;;;;;;;;;;;;;;;;;1009949;29;1324;-14
2021/12/11 02:34:58;;;;;;;;;;;;;;;;;;1017758;29;1062;-14
2021/12/11 02:35:47;;;;;;;;;;;;;;;;;;1014049;29;1060;-14
2021/12/11 02:36:22;;;;;;;;;;;;;;;;;;1014898;29;962;-14
2021/12/11 02:36:59;;;;;;;;;;;;;;;;;;1014876;29;887;-14
2021/12/11 02:37:38;;;;;;;;;;;;;;;;;;1013574;29;1298;-14
2021/12/11 02:38:44;;;;;;;;;;;;;;;;;;1013803;29;1310;-14
2021/12/11 02:39:23;;;;;;;;;;;;;;;;;;998695;29;1319;-14
2021/12/11 02:39:56;;;;;;;;;;;;;;;;;;1000627;29;968;-14
2021/12/11 02:40:29;;;;;;;;;;;;;;;;;;1001544;29;1311;-14
2021/12/11 02:41:05;;;;;;;;;;;;;;;;;;1002644;29;1135;-14
2021/12/11 02:41:54;;;;;;;;;;;;;;;;;;1002484;29;1170;-14
2021/12/11 02:42:33;;;;;;;;;;;;;;;;;;1017706;29;1157;-14
2021/12/11 02:43:07;;;;;;;;;;;;;;;;;;1018221;29;1029;-14
2021/12/11 02:43:41;;;;;;;;;;;;;;;;;;1017684;29;1391;-14
2021/12/11 02:44:16;;;;;;;;;;;;;;;;;;1014063;29;912;-14
2021/12/11 02:45:07;;;;;;;;;;;;;;;;;;1013810;29;1020;-14
2021/12/11 02:46:00;;;;;;;;;;;;;;;;;;1013736;29;1692;-14
2021/12/11 02:46:34;;;;;;;;;;;;;;;;;;1010039;29;950;-14
2021/12/11 02:47:19;;;;;;;;;;;;;;;;;;1010201;29;940;-14
2021/12/11 02:48:04;;;;;;;;;;;;;;;;;;1009768;29;1316;-14
2021/12/11 02:48:44;;;;;;;;;;;;;;;;;;1012132;29;1923;-14
2021/12/11 02:49:50;;;;;;;;;;;;;;;;;;1010539;29;976;-13
2021/12/11 02:50:20;;;;;;;;;;;;;;;;;;1003186;29;1147;-14
2021/12/11 02:51:19;;;;;;;;;;;;;;;;;;1002937;29;1328;-14
2021/12/11 02:52:11;;;;;;;;;;;;;;;;;;995340;29;1375;-13
2021/12/11 02:52:47;;;;;;;;;;;;;;;;;;1006599;29;912;-14
2021/12/11 02:53:43;;;;;;;;;;;;;;;;;;1015008;29;931;-14
2021/12/11 02:54:17;;;;;;;;;;;;;;;;;;1002746;29;1296;-14
2021/12/11 02:55:10;;;;;;;;;;;;;;;;;;1002889;29;1034;-14
2021/12/11 02:55:43;;;;;;;;;;;;;;;;;;1002706;29;1014;-14
2021/12/11 02:56:34;;;;;;;;;;;;;;;;;;1002722;29;1310;-14
2021/12/11 02:57:16;;;;;;;;;;;;;;;;;;1004620;29;1354;-13
2021/12/11 02:57:48;;;;;;;;;;;;;;;;;;1006282;29;1427;-13
2021/12/11 02:58:22;;;;;;;;;;;;;;;;;;1014820;29;1011;-13
2021/12/11 02:59:14;;;;;;;;;;;;;;;;;;1016333;29;1352;-14
2021/12/11 03:00:04;;;;;;;;;;;;;;;;;;1014471;29;1134;-13
2021/12/11 03:00:43;;;;;;;;;;;;;;;;;;998698;29;1231;-14
2021/12/11 03:01:23;;;;;;;;;;;;;;;;;;999579;29;989;-13
2021/12/11 03:02:13;;;;;;;;;;;;;;;;;;1010650;29;1226;-14
2021/12/11 03:03:06;;;;;;;;;;;;;;;;;;1014391;29;989;-14
2021/12/11 03:04:00;;;;;;;;;;;;;;;;;;1006875;29;1027;-14
2021/12/11 03:04:36;;;;;;;;;;;;;;;;;;1002329;29;1222;-14
2021/12/11 03:05:11;;;;;;;;;;;;;;;;;;1007132;29;1079;-14
2021/12/11 03:05:50;;;;;;;;;;;;;;;;;;1014754;29;1078;-14
2021/12/11 03:06:24;;;;;;;;;;;;;;;;;;1014457;29;1073;-14
2021/12/11 03:06:56;;;;;;;;;;;;;;;;;;1015003;29;1129;-14
2021/12/11 03:07:36;;;;;;;;;;;;;;;;;;1014746;29;957;-14
2021/12/11 03:08:08;;;;;;;;;;;;;;;;;;1014414;29;997;-14
2021/12/11 03:08:40;;;;;;;;;;;;;;;;;;1014771;29;1907;-13
2021/12/11 03:09:13;;;;;;;;;;;;;;;;;;1014544;29;972;-13
2021/12/11 03:09:47;;;;;;;;;;;;;;;;;;1015274;29;1089;-14
2021/12/11 03:10:23;;;;;;;;;;;;;;;;;;1018205;29;1540;-14
2021/12/11 03:10:55;;;;;;;;;;;;;;;;;;1018864;29;1092;-14
2021/12/11 03:11:28;;;;;;;;;;;;;;;;;;1018999;29;1267;-14
2021/12/11 03:12:02;;;;;;;;;;;;;;;;;;1019177;29;1088;-14
2021/12/11 03:12:32;;;;;;;;;;;;;;;;;;1019302;29;980;-14
2021/12/11 03:13:04;;;;;;;;;;;;;;;;;;1018751;29;1291;-14
2021/12/11 03:13:38;;;;;;;;;;;;;;;;;;1018662;29;1020;-14
2021/12/11 03:14:12;;;;;;;;;;;;;;;;;;1010601;29;1053;-14
2021/12/11 03:14:42;;;;;;;;;;;;;;;;;;1010681;29;927;-13
2021/12/11 03:15:14;;;;;;;;;;;;;;;;;;1009785;29;1313;-15
2021/12/11 03:15:45;;;;;;;;;;;;;;;;;;1007429;29;1158;-14
2021/12/11 03:16:17;;;;;;;;;;;;;;;;;;1014541;29;974;-14
2021/12/11 03:16:50;;;;;;;;;;;;;;;;;;1014583;29;1119;-13
2021/12/11 03:17:21;;;;;;;;;;;;;;;;;;1011253;29;991;-13
2021/12/11 03:17:52;;;;;;;;;;;;;;;;;;1014666;29;1025;-13
2021/12/11 03:18:23;;;;;;;;;;;;;;;;;;1014133;29;1367;-13
2021/12/11 03:18:55;;;;;;;;;;;;;;;;;;1010887;29;991;-14
2021/12/11 03:19:31;;;;;;;;;;;;;;;;;;1002613;29;1289;-14
2021/12/11 03:20:01;;;;;;;;;;;;;;;;;;1002882;29;974;-13
2021/12/11 03:20:33;;;;;;;;;;;;;;;;;;1004028;29;1090;-14
2021/12/11 03:21:03;;;;;;;;;;;;;;;;;;1009136;29;963;-14
2021/12/11 03:21:35;;;;;;;;;;;;;;;;;;1018791;29;1022;-13
2021/12/11 03:22:07;;;;;;;;;;;;;;;;;;1013802;29;1464;-14
2021/12/11 03:22:38;;;;;;;;;;;;;;;;;;1010632;29;1129;-13
2021/12/11 03:23:08;;;;;;;;;;;;;;;;;;1010580;29;1235;-14
2021/12/11 03:23:40;;;;;;;;;;;;;;;;;;1010433;29;1428;-14
2021/12/11 03:24:10;;;;;;;;;;;;;;;;;;1014611;29;1104;-14
2021/12/11 03:24:41;;;;;;;;;;;;;;;;;;1018514;29;1113;-14
2021/12/11 03:25:19;;;;;;;;;;;;;;;;;;1018548;29;1018;-14
2021/12/11 03:25:49;;;;;;;;;;;;;;;;;;1014458;29;1204;-14
2021/12/11 03:26:20;;;;;;;;;;;;;;;;;;1010279;29;1299;-14
2021/12/11 03:26:52;;;;;;;;;;;;;;;;;;1010728;29;1079;-14
2021/12/11 03:27:23;;;;;;;;;;;;;;;;;;1010324;29;1175;-14
2021/12/11 03:27:53;;;;;;;;;;;;;;;;;;1010686;29;1043;-14
2021/12/11 03:28:24;;;;;;;;;;;;;;;;;;1010940;29;1022;-14
2021/12/11 03:28:54;;;;;;;;;;;;;;;;;;1018785;29;1986;-14
2021/12/11 03:29:25;;;;;;;;;;;;;;;;;;1019161;29;1030;-14
2021/12/11 03:29:56;;;;;;;;;;;;;;;;;;1014623;29;985;-14
2021/12/11 03:30:28;;;;;;;;;;;;;;;;;;1014482;29;1034;-14
2021/12/11 03:31:00;;;;;;;;;;;;;;;;;;1014274;29;1472;-14
2021/12/11 03:31:30;;;;;;;;;;;;;;;;;;1015024;29;955;-14
2021/12/11 03:32:01;;;;;;;;;;;;;;;;;;1019189;29;816;-14
2021/12/11 03:32:32;;;;;;;;;;;;;;;;;;1014505;29;1229;-14
2021/12/11 03:33:22;;;;;;;;;;;;;;;;;;1014409;29;1026;-14
2021/12/11 03:33:55;;;;;;;;;;;;;;;;;;1006377;29;1487;-15
2021/12/11 03:34:27;;;;;;;;;;;;;;;;;;1006063;29;1102;-15
2021/12/11 03:34:57;;;;;;;;;;;;;;;;;;1010536;29;1105;-13
2021/12/11 03:35:28;;;;;;;;;;;;;;;;;;1011621;29;1185;-14
2021/12/11 03:35:58;;;;;;;;;;;;;;;;;;1018290;29;1089;-13
2021/12/11 03:36:32;;;;;;;;;;;;;;;;;;1018476;29;1038;-13
2021/12/11 03:37:04;;;;;;;;;;;;;;;;;;1017983;29;1193;-13
2021/12/11 03:37:35;;;;;;;;;;;;;;;;;;1014494;29;1144;-14
2021/12/11 03:38:20;;;;;;;;;;;;;;;;;;1014017;29;1326;-15
2021/12/11 03:38:55;;;;;;;;;;;;;;;;;;1006896;29;1153;-14
2021/12/11 03:39:29;;;;;;;;;;;;;;;;;;1009526;29;1631;-13
2021/12/11 03:39:59;;;;;;;;;;;;;;;;;;1010505;29;1219;-13
2021/12/11 03:40:30;;;;;;;;;;;;;;;;;;1011382;29;1153;-13
2021/12/11 03:41:02;;;;;;;;;;;;;;;;;;1014286;29;1433;-13
2021/12/11 03:41:39;;;;;;;;;;;;;;;;;;1014511;29;1108;-14
2021/12/11 03:42:12;;;;;;;;;;;;;;;;;;1009845;29;1359;-14
2021/12/11 03:42:46;;;;;;;;;;;;;;;;;;1010458;29;1065;-13
2021/12/11 03:43:18;;;;;;;;;;;;;;;;;;1007718;29;1342;-14
2021/12/11 03:43:49;;;;;;;;;;;;;;;;;;1010163;29;1244;-14
2021/12/11 03:44:20;;;;;;;;;;;;;;;;;;1010486;29;1152;-14
2021/12/11 03:44:51;;;;;;;;;;;;;;;;;;1010481;29;1429;-13
2021/12/11 03:45:24;;;;;;;;;;;;;;;;;;1018036;29;1095;-13
2021/12/11 03:45:56;;;;;;;;;;;;;;;;;;1014568;29;1048;-14
2021/12/11 03:46:27;;;;;;;;;;;;;;;;;;1014585;29;1031;-13
2021/12/11 03:46:58;;;;;;;;;;;;;;;;;;1015185;29;789;-13
2021/12/11 03:47:31;;;;;;;;;;;;;;;;;;1014456;29;1317;-14
2021/12/11 03:48:11;;;;;;;;;;;;;;;;;;1009733;29;1321;-13
2021/12/11 03:49:04;;;;;;;;;;;;;;;;;;1010385;29;1973;-14
2021/12/11 03:49:35;;;;;;;;;;;;;;;;;;1008687;29;996;-14
2021/12/11 03:50:11;;;;;;;;;;;;;;;;;;1010488;29;1024;-13
2021/12/11 03:50:41;;;;;;;;;;;;;;;;;;1005735;29;1345;-14
2021/12/11 03:51:14;;;;;;;;;;;;;;;;;;1006685;29;1019;-14
2021/12/11 03:51:46;;;;;;;;;;;;;;;;;;1006439;29;1370;-14
2021/12/11 03:52:18;;;;;;;;;;;;;;;;;;1008333;29;1159;-13
2021/12/11 03:52:50;;;;;;;;;;;;;;;;;;1006623;29;1058;-14
2021/12/11 03:53:21;;;;;;;;;;;;;;;;;;1006122;29;1362;-14
2021/12/11 03:53:52;;;;;;;;;;;;;;;;;;1006896;29;972;-13
2021/12/11 03:54:25;;;;;;;;;;;;;;;;;;1007500;29;1164;-14
2021/12/11 03:54:56;;;;;;;;;;;;;;;;;;1018840;29;1080;-13
2021/12/11 03:55:28;;;;;;;;;;;;;;;;;;1014756;29;1039;-13
2021/12/11 03:56:00;;;;;;;;;;;;;;;;;;1014737;29;1118;-13
2021/12/11 03:56:31;;;;;;;;;;;;;;;;;;1014719;29;1101;-15
2021/12/11 03:57:02;;;;;;;;;;;;;;;;;;1014710;29;1090;-13
2021/12/11 03:57:32;;;;;;;;;;;;;;;;;;1018310;29;1307;-13
2021/12/11 03:58:04;;;;;;;;;;;;;;;;;;1018336;29;1105;-13
2021/12/11 03:58:35;;;;;;;;;;;;;;;;;;1018044;29;1613;-14
2021/12/11 03:59:09;;;;;;;;;;;;;;;;;;1018747;29;1147;-13
2021/12/11 03:59:40;;;;;;;;;;;;;;;;;;1019197;29;1063;-18
2021/12/11 04:00:14;;;;;;;;;;;;;;;;;;1009995;29;1305;-13
2021/12/11 04:01:06;;;;;;;;;;;;;;;;;;1010524;29;1026;-14
2021/12/11 04:01:40;;;;;;;;;;;;;;;;;;997782;29;1254;-13
2021/12/11 04:02:12;;;;;;;;;;;;;;;;;;1006007;29;1106;-13
2021/12/11 04:02:44;;;;;;;;;;;;;;;;;;1009898;29;1327;-14
2021/12/11 04:03:16;;;;;;;;;;;;;;;;;;1011269;29;1095;-14
2021/12/11 04:03:48;;;;;;;;;;;;;;;;;;1010472;29;1063;-14
2021/12/11 04:04:30;;;;;;;;;;;;;;;;;;997423;29;1334;-13
2021/12/11 04:05:10;;;;;;;;;;;;;;;;;;995124;29;1138;-13
2021/12/11 04:05:41;;;;;;;;;;;;;;;;;;991297;29;1064;-14
2021/12/11 04:06:13;;;;;;;;;;;;;;;;;;1002171;29;991;-14
2021/12/11 04:06:45;;;;;;;;;;;;;;;;;;1006375;29;1417;-13
2021/12/11 04:07:17;;;;;;;;;;;;;;;;;;1006752;29;1113;-14
2021/12/11 04:07:50;;;;;;;;;;;;;;;;;;1010691;29;950;-14
2021/12/11 04:08:25;;;;;;;;;;;;;;;;;;1005557;29;1091;-13
2021/12/11 04:08:56;;;;;;;;;;;;;;;;;;1004892;29;1911;-14